Time;durP1;ratioP1;P1;durP2;ratioP2;P2;SDS_P1;SDS_P2;PMS_P1;PMS_P2;Temp;Humidity;BMP_temperature;BMP_pressure;BME280_temperature;BME280_humidity;BME280_pressure;Samples;Min_cycle;Max_cycle;Signal;HPM_P1;HPM_P2
2022/07/12 00:01:21;;;;;;;12.88;11.48;;;;;;;;;;6275877;22;20030;-78
2022/07/12 00:03:47;;;;;;;12.88;10.30;;;;;;;;;;6275347;22;20012;-80
2022/07/12 00:06:14;;;;;;;13.07;10.73;;;;;;;;;;6273563;22;20073;-78
2022/07/12 00:08:40;;;;;;;12.27;11.07;;;;;;;;;;6272608;22;20021;-77
2022/07/12 00:11:06;;;;;;;12.43;11.23;;;;;;;;;;6276007;22;20012;-81
2022/07/12 00:13:32;;;;;;;11.40;10.27;;;;;;;;;;6249331;22;20050;-83
2022/07/12 00:15:58;;;;;;;13.40;12.02;;;;;;;;;;6277402;22;20035;-82
2022/07/12 00:18:25;;;;;;;15.30;13.70;;;;;;;;;;6222364;22;20024;-81
2022/07/12 00:20:51;;;;;;;14.68;12.32;;;;;;;;;;6246997;22;20026;-79
2022/07/12 00:23:17;;;;;;;13.43;12.02;;;;;;;;;;6246524;22;20043;-82
2022/07/12 00:25:43;;;;;;;15.75;13.35;;;;;;;;;;6219999;22;20028;-80
2022/07/12 00:28:09;;;;;;;16.80;13.10;;;;;;;;;;6277743;22;20023;-81
2022/07/12 00:30:36;;;;;;;16.33;13.10;;;;;;;;;;6283292;22;20102;-82
2022/07/12 00:33:02;;;;;;;19.55;15.50;;;;;;;;;;6286778;22;20016;-85
2022/07/12 00:35:28;;;;;;;19.00;15.50;;;;;;;;;;6288068;22;20016;-85
2022/07/12 00:37:54;;;;;;;21.13;16.65;;;;;;;;;;6260415;22;20023;-82
2022/07/12 00:40:20;;;;;;;21.55;17.08;;;;;;;;;;6235625;22;20047;-84
2022/07/12 00:42:46;;;;;;;22.45;16.63;;;;;;;;;;6290656;22;20045;-80
2022/07/12 00:45:12;;;;;;;21.17;16.90;;;;;;;;;;6283295;22;20019;-85
2022/07/12 00:47:44;;;;;;;20.27;16.45;;;;;;;;;;6283477;22;20019;-84
2022/07/12 00:50:21;;;;;;;19.00;15.32;;;;;;;;;;6254990;22;20022;-81
2022/07/12 00:52:49;;;;;;;17.35;14.45;;;;;;;;;;6281318;22;20455;-84
2022/07/12 00:55:16;;;;;;;18.08;15.68;;;;;;;;;;6229879;22;20023;-80
2022/07/12 00:57:43;;;;;;;18.83;15.02;;;;;;;;;;6278946;22;20026;-79
2022/07/12 01:00:10;;;;;;;17.85;15.48;;;;;;;;;;6276597;22;20069;-80
2022/07/12 01:02:37;;;;;;;16.70;14.82;;;;;;;;;;6248359;22;20079;-79
2022/07/12 01:05:07;;;;;;;16.77;14.98;;;;;;;;;;6246737;22;20019;-80
2022/07/12 01:07:34;;;;;;;15.93;13.65;;;;;;;;;;6272102;22;20027;-79
2022/07/12 01:10:01;;;;;;;20.75;13.45;;;;;;;;;;6277913;22;20024;-83
2022/07/12 01:12:27;;;;;;;15.95;13.95;;;;;;;;;;6279877;22;20030;-80
2022/07/12 01:14:53;;;;;;;15.23;13.63;;;;;;;;;;6278270;22;20843;-79
2022/07/12 01:17:21;;;;;;;15.55;13.95;;;;;;;;;;6277462;22;20019;-82
2022/07/12 01:19:47;;;;;;;14.52;13.02;;;;;;;;;;6248818;22;20019;-80
2022/07/12 01:22:15;;;;;;;13.88;11.85;;;;;;;;;;6274957;22;20023;-81
2022/07/12 01:24:41;;;;;;;15.68;12.07;;;;;;;;;;6246182;22;20074;-80
2022/07/12 01:27:07;;;;;;;13.45;12.05;;;;;;;;;;6273237;22;20062;-80
2022/07/12 01:29:34;;;;;;;12.27;10.88;;;;;;;;;;6226040;22;20016;-85
2022/07/12 01:34:46;;;;;;;12.43;10.88;;;;;;;;;;6279691;22;20019;-82
2022/07/12 01:37:14;;;;;;;12.65;10.82;;;;;;;;;;6253056;22;20030;-84
2022/07/12 01:39:40;;;;;;;13.98;11.60;;;;;;;;;;6280053;22;20359;-85
2022/07/12 01:42:06;;;;;;;14.25;11.18;;;;;;;;;;6279825;22;20462;-84
2022/07/12 01:44:32;;;;;;;14.35;12.85;;;;;;;;;;6278857;22;20494;-84
2022/07/12 01:46:59;;;;;;;15.82;11.43;;;;;;;;;;6252184;22;20071;-82
2022/07/12 01:49:25;;;;;;;12.68;11.35;;;;;;;;;;6251825;22;20095;-85
2022/07/12 01:51:58;;;;;;;13.98;12.25;;;;;;;;;;6278353;22;20020;-80
2022/07/12 01:54:25;;;;;;;13.23;11.85;;;;;;;;;;6279159;22;20050;-84
2022/07/12 01:56:52;;;;;;;13.52;11.93;;;;;;;;;;6278275;22;20026;-84
2022/07/12 01:59:18;;;;;;;14.63;12.98;;;;;;;;;;6252182;22;20024;-83
2022/07/12 02:01:44;;;;;;;18.40;13.73;;;;;;;;;;6278794;22;20034;-83
2022/07/12 02:04:10;;;;;;;18.20;13.40;;;;;;;;;;6279327;22;20585;-80
2022/07/12 02:06:36;;;;;;;19.13;14.88;;;;;;;;;;6226934;22;20320;-82
2022/07/12 02:09:02;;;;;;;21.73;16.73;;;;;;;;;;6279381;22;20047;-84
2022/07/12 02:11:28;;;;;;;24.65;20.15;;;;;;;;;;6279811;22;20034;-80
2022/07/12 02:13:54;;;;;;;23.17;19.17;;;;;;;;;;6252338;22;20019;-81
2022/07/12 02:16:21;;;;;;;28.38;21.05;;;;;;;;;;6279671;22;20020;-85
2022/07/12 02:18:47;;;;;;;27.75;21.23;;;;;;;;;;6226882;22;20016;-84
2022/07/12 02:21:13;;;;;;;28.58;22.75;;;;;;;;;;6279236;22;20392;-84
2022/07/12 02:23:39;;;;;;;26.92;20.98;;;;;;;;;;6278985;22;20020;-83
2022/07/12 02:26:05;;;;;;;29.80;22.55;;;;;;;;;;6279797;22;20057;-85
2022/07/12 02:28:31;;;;;;;29.80;23.10;;;;;;;;;;6252643;22;20020;-85
2022/07/12 02:30:57;;;;;;;31.33;23.58;;;;;;;;;;6251032;22;20020;-84
2022/07/12 02:33:24;;;;;;;33.35;23.30;;;;;;;;;;6277401;22;20019;-83
2022/07/12 02:35:50;;;;;;;30.80;23.38;;;;;;;;;;6278123;22;20012;-83
2022/07/12 02:38:16;;;;;;;32.38;23.83;;;;;;;;;;6226172;22;20027;-82
2022/07/12 02:40:54;;;;;;;33.83;24.85;;;;;;;;;;6276236;22;20027;-83
2022/07/12 02:43:26;;;;;;;29.65;22.92;;;;;;;;;;6275710;22;20443;-84
2022/07/12 02:45:53;;;;;;;30.58;23.52;;;;;;;;;;6250222;22;20071;-87
2022/07/12 02:48:20;;;;;;;31.40;24.40;;;;;;;;;;6277738;22;20067;-78
2022/07/12 02:50:46;;;;;;;30.35;22.83;;;;;;;;;;6277871;22;20049;-84
2022/07/12 02:53:13;;;;;;;34.10;23.77;;;;;;;;;;6280353;22;20019;-83
2022/07/12 02:55:39;;;;;;;30.85;21.80;;;;;;;;;;6280067;22;20027;-84
2022/07/12 02:58:05;;;;;;;24.52;19.42;;;;;;;;;;6278498;22;20075;-82
2022/07/12 03:00:32;;;;;;;28.75;19.77;;;;;;;;;;6251588;22;20023;-84
2022/07/12 03:02:58;;;;;;;26.33;19.17;;;;;;;;;;6251653;22;20019;-85
2022/07/12 03:05:25;;;;;;;25.08;18.17;;;;;;;;;;6278091;22;20104;-79
2022/07/12 03:07:51;;;;;;;24.05;17.85;;;;;;;;;;6222643;22;20051;-81
2022/07/12 03:10:17;;;;;;;19.63;15.23;;;;;;;;;;6274984;22;20467;-81
2022/07/12 03:12:43;;;;;;;17.50;13.40;;;;;;;;;;6275902;22;20478;-80
2022/07/12 03:15:10;;;;;;;19.77;15.38;;;;;;;;;;6275789;22;20020;-81
2022/07/12 03:17:36;;;;;;;23.50;17.63;;;;;;;;;;6274604;22;20031;-80
2022/07/12 03:20:03;;;;;;;22.45;17.48;;;;;;;;;;6273850;22;20051;-80
2022/07/12 03:22:29;;;;;;;21.40;16.25;;;;;;;;;;6272741;22;20023;-78
2022/07/12 03:24:56;;;;;;;15.57;12.98;;;;;;;;;;6221536;22;20015;-80
2022/07/12 03:27:22;;;;;;;11.82;10.25;;;;;;;;;;6250037;22;20093;-80
2022/07/12 03:29:48;;;;;;;13.50;10.90;;;;;;;;;;6275571;22;20024;-80
2022/07/12 03:32:14;;;;;;;15.90;12.43;;;;;;;;;;6273313;22;20020;-81
2022/07/12 03:34:40;;;;;;;16.58;12.18;;;;;;;;;;6246745;22;20024;-77
2022/07/12 03:37:06;;;;;;;17.70;13.20;;;;;;;;;;6272802;22;20026;-82
2022/07/12 03:39:33;;;;;;;17.20;12.70;;;;;;;;;;6246851;22;20020;-81
2022/07/12 03:41:59;;;;;;;18.70;12.68;;;;;;;;;;6246855;22;20030;-82
2022/07/12 03:44:25;;;;;;;18.30;13.10;;;;;;;;;;6275506;22;20016;-86
2022/07/12 03:46:51;;;;;;;17.42;13.40;;;;;;;;;;6273234;22;20075;-82
2022/07/12 03:49:17;;;;;;;19.13;14.07;;;;;;;;;;6273888;22;20020;-82
2022/07/12 03:51:43;;;;;;;21.50;14.27;;;;;;;;;;6275776;22;20028;-83
2022/07/12 03:54:09;;;;;;;20.00;14.55;;;;;;;;;;6273173;22;20046;-82
2022/07/12 03:59:21;;;;;;;23.88;16.15;;;;;;;;;;6277180;22;20031;-87
2022/07/12 04:01:47;;;;;;;20.60;14.57;;;;;;;;;;6278965;22;20333;-81
2022/07/12 04:04:13;;;;;;;21.63;15.05;;;;;;;;;;6280106;22;20424;-83
2022/07/12 04:06:39;;;;;;;21.27;14.60;;;;;;;;;;6250139;22;20022;-80
2022/07/12 04:09:08;;;;;;;20.15;14.07;;;;;;;;;;6278184;22;20407;-86
2022/07/12 04:11:35;;;;;;;14.52;11.15;;;;;;;;;;6280412;22;20068;-85
2022/07/12 04:14:01;;;;;;;12.82;10.25;;;;;;;;;;6281338;22;20016;-81
2022/07/12 04:16:29;;;;;;;12.20;10.68;;;;;;;;;;6281427;22;20335;-83
2022/07/12 04:18:55;;;;;;;16.38;11.80;;;;;;;;;;6280415;22;20114;-84
2022/07/12 04:21:22;;;;;;;15.27;12.45;;;;;;;;;;6281123;22;20103;-84
2022/07/12 04:23:48;;;;;;;14.48;12.55;;;;;;;;;;6280840;22;20049;-84
2022/07/12 04:26:14;;;;;;;13.20;11.02;;;;;;;;;;6280877;22;20094;-84
2022/07/12 04:28:40;;;;;;;12.02;10.18;;;;;;;;;;6280904;22;20020;-84
2022/07/12 04:31:06;;;;;;;12.20;10.10;;;;;;;;;;6281679;22;20412;-86
2022/07/12 04:33:33;;;;;;;11.07;9.60;;;;;;;;;;6254006;22;20012;-83
2022/07/12 04:35:59;;;;;;;15.25;9.98;;;;;;;;;;6280422;22;20046;-82
2022/07/12 04:38:25;;;;;;;17.45;10.60;;;;;;;;;;6280019;22;20030;-85
2022/07/12 04:40:52;;;;;;;28.90;11.05;;;;;;;;;;6279917;22;20019;-82
2022/07/12 04:43:18;;;;;;;13.32;10.50;;;;;;;;;;6280269;22;20067;-82
2022/07/12 04:45:44;;;;;;;13.10;11.25;;;;;;;;;;6281188;22;20012;-84
2022/07/12 04:48:10;;;;;;;16.05;11.90;;;;;;;;;;6279751;22;20019;-86
2022/07/12 04:50:37;;;;;;;11.20;9.50;;;;;;;;;;6281818;22;20024;-85
2022/07/12 04:53:03;;;;;;;11.63;9.70;;;;;;;;;;6281215;22;20012;-83
2022/07/12 04:55:29;;;;;;;10.23;8.70;;;;;;;;;;6278557;22;20321;-85
2022/07/12 04:57:55;;;;;;;10.18;9.10;;;;;;;;;;6279516;22;20023;-83
2022/07/12 05:00:22;;;;;;;10.57;9.48;;;;;;;;;;6281676;22;20022;-84
2022/07/12 05:02:48;;;;;;;11.75;9.23;;;;;;;;;;6255229;22;20015;-83
2022/07/12 05:05:17;;;;;;;10.35;9.35;;;;;;;;;;6281667;22;20023;-86
2022/07/12 05:07:43;;;;;;;10.45;9.45;;;;;;;;;;6281478;22;20020;-83
2022/07/12 05:10:09;;;;;;;13.15;11.40;;;;;;;;;;6255418;22;20021;-85
2022/07/12 05:12:36;;;;;;;16.27;12.00;;;;;;;;;;6280984;22;20015;-85
2022/07/12 05:15:02;;;;;;;14.32;11.65;;;;;;;;;;6281952;22;20039;-83
2022/07/12 05:17:28;;;;;;;13.52;11.80;;;;;;;;;;6281421;22;20019;-85
2022/07/12 05:19:55;;;;;;;14.70;11.43;;;;;;;;;;6281884;22;20095;-84
2022/07/12 05:22:21;;;;;;;13.18;11.52;;;;;;;;;;6254285;22;20028;-86
2022/07/12 05:24:47;;;;;;;14.82;11.85;;;;;;;;;;6254369;22;20019;-83
2022/07/12 05:27:13;;;;;;;15.25;11.95;;;;;;;;;;6282053;22;20050;-87
2022/07/12 05:29:39;;;;;;;12.90;11.60;;;;;;;;;;6281056;22;20020;-84
2022/07/12 05:32:06;;;;;;;17.73;13.68;;;;;;;;;;6254233;22;20024;-86
2022/07/12 05:34:32;;;;;;;12.75;11.13;;;;;;;;;;6280974;22;20016;-85
2022/07/12 05:36:58;;;;;;;20.35;12.75;;;;;;;;;;6281173;22;20020;-81
2022/07/12 05:39:24;;;;;;;22.23;13.18;;;;;;;;;;6280667;22;20089;-83
2022/07/12 05:41:50;;;;;;;16.63;12.48;;;;;;;;;;6280780;22;20011;-84
2022/07/12 05:44:19;;;;;;;19.30;12.82;;;;;;;;;;6253728;22;20023;-85
2022/07/12 05:46:46;;;;;;;17.90;12.75;;;;;;;;;;6280480;22;20042;-85
2022/07/12 05:49:13;;;;;;;12.23;10.95;;;;;;;;;;6281465;22;20027;-87
2022/07/12 05:54:23;;;;;;;39.10;12.25;;;;;;;;;;6280281;22;20016;-86
2022/07/12 05:56:50;;;;;;;21.95;13.25;;;;;;;;;;6280480;22;20023;-83
2022/07/12 05:59:17;;;;;;;30.73;12.75;;;;;;;;;;6280531;22;20028;-85
2022/07/12 06:01:43;;;;;;;20.33;14.13;;;;;;;;;;6281177;22;20090;-84
2022/07/12 06:04:09;;;;;;;13.27;10.93;;;;;;;;;;6279582;22;20020;-82
2022/07/12 06:06:35;;;;;;;13.93;11.80;;;;;;;;;;6281529;22;20034;-84
2022/07/12 06:09:02;;;;;;;11.65;9.02;;;;;;;;;;6253282;22;20016;-85
2022/07/12 06:11:28;;;;;;;8.77;7.78;;;;;;;;;;6280679;22;20026;-84
2022/07/12 06:13:54;;;;;;;11.02;9.88;;;;;;;;;;6252863;22;20031;-85
2022/07/12 06:16:20;;;;;;;10.93;9.82;;;;;;;;;;6279331;22;20051;-84
2022/07/12 06:18:46;;;;;;;12.60;10.60;;;;;;;;;;6278702;22;20027;-84
2022/07/12 06:21:12;;;;;;;17.00;12.07;;;;;;;;;;6252445;22;20016;-83
2022/07/12 06:23:38;;;;;;;27.00;12.50;;;;;;;;;;6227498;22;20027;-84
2022/07/12 06:26:04;;;;;;;14.52;12.15;;;;;;;;;;6278602;22;20378;-84
2022/07/12 06:28:30;;;;;;;18.88;14.05;;;;;;;;;;6252867;22;20020;-86
2022/07/12 06:30:56;;;;;;;14.27;11.77;;;;;;;;;;6251044;22;20015;-80
2022/07/12 06:33:22;;;;;;;13.50;12.10;;;;;;;;;;6278979;22;20414;-81
2022/07/12 06:35:48;;;;;;;16.50;12.40;;;;;;;;;;6251725;22;20015;-84
2022/07/12 06:38:15;;;;;;;12.40;10.40;;;;;;;;;;6278069;22;20103;-82
2022/07/12 06:40:41;;;;;;;14.80;10.30;;;;;;;;;;6278908;22;20045;-83
2022/07/12 06:43:10;;;;;;;12.50;10.63;;;;;;;;;;6277099;22;20047;-82
2022/07/12 06:45:36;;;;;;;12.95;10.38;;;;;;;;;;6278251;22;20020;-83
2022/07/12 06:48:03;;;;;;;14.05;10.48;;;;;;;;;;6276361;22;20020;-82
2022/07/12 06:50:29;;;;;;;12.82;10.27;;;;;;;;;;6276050;22;20024;-81
2022/07/12 06:52:55;;;;;;;12.75;9.98;;;;;;;;;;6276052;22;20352;-82
2022/07/12 06:55:21;;;;;;;12.93;9.48;;;;;;;;;;6276140;22;20042;-80
2022/07/12 06:57:47;;;;;;;10.20;8.85;;;;;;;;;;6276359;22;20019;-81
2022/07/12 07:00:17;;;;;;;12.07;9.00;;;;;;;;;;6247942;22;20019;-81
2022/07/12 07:02:43;;;;;;;11.05;9.70;;;;;;;;;;6276392;22;20034;-81
2022/07/12 07:05:10;;;;;;;11.30;10.10;;;;;;;;;;6277908;22;20042;-81
2022/07/12 07:07:37;;;;;;;11.93;9.98;;;;;;;;;;6252268;22;20063;-81
2022/07/12 07:10:03;;;;;;;12.10;10.70;;;;;;;;;;6248834;22;20098;-80
2022/07/12 07:12:29;;;;;;;12.43;10.07;;;;;;;;;;6274595;22;20471;-80
2022/07/12 07:14:55;;;;;;;10.30;9.30;;;;;;;;;;6275112;22;20016;-81
2022/07/12 07:17:21;;;;;;;10.80;9.70;;;;;;;;;;6275097;22;20351;-81
2022/07/12 07:19:48;;;;;;;9.95;8.90;;;;;;;;;;6275416;22;20144;-81
2022/07/12 07:22:18;;;;;;;9.77;8.88;;;;;;;;;;6275238;22;20019;-81
2022/07/12 07:24:44;;;;;;;9.82;8.93;;;;;;;;;;6277083;22;20329;-81
2022/07/12 07:27:10;;;;;;;9.55;8.73;;;;;;;;;;6275102;22;20020;-81
2022/07/12 07:32:21;;;;;;;9.73;8.82;;;;;;;;;;6273310;22;20020;-80
2022/07/12 07:34:47;;;;;;;11.00;9.20;;;;;;;;;;6273267;22;20027;-80
2022/07/12 07:37:13;;;;;;;11.55;9.38;;;;;;;;;;6249489;22;20019;-79
2022/07/12 07:39:40;;;;;;;10.13;9.23;;;;;;;;;;6249512;22;20083;-80
2022/07/12 07:42:06;;;;;;;11.73;9.25;;;;;;;;;;6276778;22;20016;-81
2022/07/12 07:44:32;;;;;;;10.10;9.18;;;;;;;;;;6276207;22;20074;-80
2022/07/12 07:46:58;;;;;;;9.05;8.15;;;;;;;;;;6225092;22;20016;-79
2022/07/12 07:49:24;;;;;;;11.23;8.65;;;;;;;;;;6276371;22;20015;-81
2022/07/12 07:51:51;;;;;;;10.00;7.65;;;;;;;;;;6276354;22;20023;-81
2022/07/12 07:54:17;;;;;;;12.50;8.13;;;;;;;;;;6249543;22;20523;-81
2022/07/12 07:56:43;;;;;;;14.70;8.27;;;;;;;;;;6276516;22;20434;-81
2022/07/12 07:59:09;;;;;;;10.52;8.02;;;;;;;;;;6250278;22;20031;-82
2022/07/12 08:01:53;;;;;;;10.38;8.95;;;;;;;;;;6276909;22;20043;-82
2022/07/12 08:04:20;;;;;;;10.85;7.97;;;;;;;;;;6277393;22;20020;-81
2022/07/12 08:06:47;;;;;;;12.18;7.75;;;;;;;;;;6276526;22;20082;-82
2022/07/12 08:09:14;;;;;;;9.70;8.60;;;;;;;;;;6277075;22;20316;-82
2022/07/12 08:11:40;;;;;;;8.85;8.02;;;;;;;;;;6276682;22;20023;-80
2022/07/12 08:14:06;;;;;;;9.25;8.35;;;;;;;;;;6276263;22;20051;-80
2022/07/12 08:16:33;;;;;;;9.27;8.32;;;;;;;;;;6276052;22;20022;-81
2022/07/12 08:18:59;;;;;;;11.48;8.50;;;;;;;;;;6249113;22;20077;-82
2022/07/12 08:21:26;;;;;;;8.95;8.00;;;;;;;;;;6223812;22;20016;-81
2022/07/12 08:23:53;;;;;;;9.32;8.20;;;;;;;;;;6276824;22;20051;-81
2022/07/12 08:26:19;;;;;;;8.57;7.75;;;;;;;;;;6276670;22;20077;-82
2022/07/12 08:28:45;;;;;;;10.68;8.38;;;;;;;;;;6276828;22;20016;-81
2022/07/12 08:31:13;;;;;;;8.52;7.68;;;;;;;;;;6277563;22;20022;-82
2022/07/12 08:33:40;;;;;;;10.82;8.23;;;;;;;;;;6249089;22;20451;-81
2022/07/12 08:36:08;;;;;;;9.25;8.15;;;;;;;;;;6249311;22;20037;-80
2022/07/12 08:38:37;;;;;;;9.02;8.13;;;;;;;;;;6276754;22;20020;-82
2022/07/12 08:41:06;;;;;;;9.07;7.70;;;;;;;;;;6275926;22;20063;-81
2022/07/12 08:43:35;;;;;;;10.68;8.23;;;;;;;;;;6276300;22;20015;-80
2022/07/12 08:46:05;;;;;;;11.20;8.25;;;;;;;;;;6276467;22;20019;-82
2022/07/12 08:48:32;;;;;;;8.07;7.38;;;;;;;;;;6275775;22;20019;-82
2022/07/12 08:51:02;;;;;;;10.55;7.53;;;;;;;;;;6247791;22;20016;-82
2022/07/12 08:53:28;;;;;;;8.57;7.78;;;;;;;;;;6275345;22;20020;-82
2022/07/12 08:55:55;;;;;;;8.35;7.25;;;;;;;;;;6275123;22;20043;-82
2022/07/12 08:58:21;;;;;;;9.15;7.60;;;;;;;;;;6275353;22;20066;-81
2022/07/12 09:00:47;;;;;;;9.40;7.05;;;;;;;;;;6274372;22;20069;-82
2022/07/12 09:03:16;;;;;;;8.55;7.03;;;;;;;;;;6247964;22;20095;-83
2022/07/12 09:05:49;;;;;;;8.07;6.95;;;;;;;;;;6223892;22;20026;-83
2022/07/12 09:08:15;;;;;;;10.30;7.80;;;;;;;;;;6222055;22;20024;-81
2022/07/12 09:10:50;;;;;;;9.88;7.82;;;;;;;;;;6275824;22;20094;-81
2022/07/12 09:13:16;;;;;;;7.47;6.13;;;;;;;;;;6275689;22;20103;-82
2022/07/12 09:15:42;;;;;;;7.35;6.63;;;;;;;;;;6247723;22;20091;-81
2022/07/12 09:18:13;;;;;;;7.70;7.00;;;;;;;;;;6274929;22;20016;-81
2022/07/12 09:20:40;;;;;;;7.15;6.07;;;;;;;;;;6275307;22;20024;-82
2022/07/12 09:23:07;;;;;;;7.60;6.30;;;;;;;;;;6275760;22;20093;-82
2022/07/12 09:25:34;;;;;;;5.57;5.07;;;;;;;;;;6275549;22;20020;-82
2022/07/12 09:28:03;;;;;;;7.00;6.20;;;;;;;;;;6276034;22;20039;-81
2022/07/12 09:30:29;;;;;;;6.82;5.72;;;;;;;;;;6274499;22;20032;-82
2022/07/12 09:36:12;;;;;;;6.97;5.90;;;;;;;;;;6274442;22;20019;-82
2022/07/12 09:39:02;;;;;;;8.00;6.38;;;;;;;;;;6274589;22;20030;-80
2022/07/12 09:41:28;;;;;;;5.57;5.10;;;;;;;;;;6276323;22;20329;-80
2022/07/12 09:43:54;;;;;;;7.05;5.40;;;;;;;;;;6222967;22;20022;-80
2022/07/12 09:46:20;;;;;;;9.55;6.00;;;;;;;;;;6275168;22;20016;-80
2022/07/12 09:48:47;;;;;;;5.57;5.07;;;;;;;;;;6274376;22;20026;-81
2022/07/12 09:51:17;;;;;;;5.45;4.95;;;;;;;;;;6247890;22;20030;-80
2022/07/12 09:53:44;;;;;;;5.07;4.68;;;;;;;;;;6248542;22;20023;-81
2022/07/12 09:56:12;;;;;;;4.60;4.18;;;;;;;;;;6248000;22;20024;-80
2022/07/12 09:58:47;;;;;;;6.70;5.28;;;;;;;;;;6275803;22;20028;-79
2022/07/12 10:01:14;;;;;;;5.30;4.80;;;;;;;;;;6274233;22;20022;-80
2022/07/12 10:03:40;;;;;;;5.72;5.10;;;;;;;;;;6275431;22;20086;-82
2022/07/12 10:06:07;;;;;;;5.85;4.63;;;;;;;;;;6274488;22;20012;-81
2022/07/12 10:08:33;;;;;;;11.43;4.72;;;;;;;;;;6275042;22;20020;-79
2022/07/12 10:10:59;;;;;;;4.78;3.85;;;;;;;;;;6275206;22;20012;-78
2022/07/12 10:13:25;;;;;;;4.90;4.43;;;;;;;;;;6247572;22;20023;-80
2022/07/12 10:15:57;;;;;;;4.60;4.20;;;;;;;;;;6249185;22;20043;-81
2022/07/12 10:18:23;;;;;;;4.55;4.15;;;;;;;;;;6274646;22;20022;-80
2022/07/12 10:20:50;;;;;;;4.47;3.72;;;;;;;;;;6224409;22;20047;-81
2022/07/12 10:23:30;;;;;;;6.15;3.67;;;;;;;;;;6276014;22;20020;-79
2022/07/12 10:25:57;;;;;;;3.55;3.08;;;;;;;;;;6275828;22;20073;-81
2022/07/12 10:28:23;;;;;;;3.83;3.50;;;;;;;;;;6276817;22;20074;-81
2022/07/12 10:30:50;;;;;;;4.28;3.88;;;;;;;;;;6276888;22;20501;-82
2022/07/12 10:33:20;;;;;;;3.05;2.75;;;;;;;;;;6277242;22;20034;-81
2022/07/12 10:36:06;;;;;;;4.15;3.10;;;;;;;;;;6276195;22;20027;-80
2022/07/12 10:38:36;;;;;;;2.72;2.53;;;;;;;;;;6225460;22;20452;-81
2022/07/12 10:41:18;;;;;;;4.20;3.80;;;;;;;;;;6276373;22;20460;-79
2022/07/12 10:46:34;;;;;;;2.88;2.67;;;;;;;;;;6275669;22;20023;-83
2022/07/12 10:49:26;;;;;;;3.20;2.90;;;;;;;;;;6248174;22;20085;-80
2022/07/12 10:52:11;;;;;;;1.98;1.85;;;;;;;;;;6276306;22;20044;-82
2022/07/12 10:54:41;;;;;;;3.38;1.67;;;;;;;;;;6276777;22;20095;-81
2022/07/12 10:57:07;;;;;;;2.65;2.03;;;;;;;;;;6274363;22;20022;-80
2022/07/12 10:59:34;;;;;;;2.10;2.00;;;;;;;;;;6275985;22;20115;-79
2022/07/12 11:02:00;;;;;;;1.90;1.80;;;;;;;;;;6272829;22;20015;-79
2022/07/12 11:04:27;;;;;;;2.03;1.50;;;;;;;;;;6247285;22;20020;-80
2022/07/12 11:06:56;;;;;;;2.25;1.73;;;;;;;;;;6271473;22;20082;-80
2022/07/12 11:09:23;;;;;;;1.77;1.52;;;;;;;;;;6271273;22;20026;-80
2022/07/12 11:11:49;;;;;;;2.47;1.40;;;;;;;;;;6243904;22;20348;-81
2022/07/12 11:14:30;;;;;;;1.73;1.63;;;;;;;;;;6220248;22;20068;-79
2022/07/12 11:16:57;;;;;;;1.80;1.40;;;;;;;;;;6273801;22;20042;-82
2022/07/12 11:19:24;;;;;;;2.30;1.50;;;;;;;;;;6273310;22;20347;-81
2022/07/12 11:21:55;;;;;;;1.90;1.70;;;;;;;;;;6273108;22;20015;-81
2022/07/12 11:24:25;;;;;;;2.60;1.60;;;;;;;;;;6271651;22;20055;-80
2022/07/12 11:26:54;;;;;;;1.40;1.30;;;;;;;;;;6273546;22;20016;-80
2022/07/12 11:29:21;;;;;;;1.50;1.40;;;;;;;;;;6273409;22;20111;-81
2022/07/12 11:31:50;;;;;;;2.55;1.55;;;;;;;;;;6272359;22;20612;-80
2022/07/12 11:34:21;;;;;;;3.35;1.27;;;;;;;;;;6217963;22;20110;-80
2022/07/12 11:36:47;;;;;;;3.30;1.58;;;;;;;;;;6271813;22;20020;-81
2022/07/12 11:39:13;;;;;;;2.33;1.10;;;;;;;;;;6271330;22;20030;-79
2022/07/12 11:41:39;;;;;;;1.88;1.30;;;;;;;;;;6270464;22;20020;-81
2022/07/12 11:44:05;;;;;;;2.13;1.50;;;;;;;;;;6245645;22;20012;-80
2022/07/12 11:46:35;;;;;;;4.50;1.35;;;;;;;;;;6218903;22;20024;-81
2022/07/12 11:49:02;;;;;;;1.30;1.20;;;;;;;;;;6220008;22;20030;-80
2022/07/12 11:51:28;;;;;;;1.17;1.08;;;;;;;;;;6269372;22;20023;-81
2022/07/12 11:56:46;;;;;;;2.53;1.50;;;;;;;;;;6243977;22;20026;-80
2022/07/12 11:59:12;;;;;;;4.50;1.80;;;;;;;;;;6270998;22;20024;-81
2022/07/12 12:01:38;;;;;;;2.20;1.45;;;;;;;;;;6271244;22;20452;-82
2022/07/12 12:04:05;;;;;;;1.92;1.70;;;;;;;;;;6243062;22;20015;-80
2022/07/12 12:06:31;;;;;;;1.50;1.40;;;;;;;;;;6219093;22;20016;-80
2022/07/12 12:09:05;;;;;;;1.35;1.20;;;;;;;;;;6269913;22;20023;-83
2022/07/12 12:11:40;;;;;;;4.22;1.67;;;;;;;;;;6220352;22;20339;-80
2022/07/12 12:14:06;;;;;;;4.00;1.88;;;;;;;;;;6270746;22;20022;-81
2022/07/12 12:16:33;;;;;;;2.70;1.88;;;;;;;;;;6243250;22;20015;-80
2022/07/12 12:19:01;;;;;;;3.03;1.80;;;;;;;;;;6271337;22;20015;-79
2022/07/12 12:21:27;;;;;;;2.25;1.80;;;;;;;;;;6270511;22;20012;-80
2022/07/12 12:24:08;;;;;;;2.65;1.70;;;;;;;;;;6246160;22;20188;-80
2022/07/12 12:26:35;;;;;;;4.05;1.60;;;;;;;;;;6219704;22;20031;-82
2022/07/12 12:29:02;;;;;;;3.47;1.60;;;;;;;;;;6275460;22;20022;-81
2022/07/12 12:31:28;;;;;;;2.95;1.67;;;;;;;;;;6272431;22;20130;-81
2022/07/12 12:33:58;;;;;;;4.75;1.55;;;;;;;;;;6274282;22;20095;-80
2022/07/12 12:36:28;;;;;;;3.70;1.50;;;;;;;;;;6247112;22;20024;-81
2022/07/12 12:38:56;;;;;;;1.83;1.52;;;;;;;;;;6220338;22;20030;-82
2022/07/12 12:41:22;;;;;;;1.95;1.30;;;;;;;;;;6272847;22;20796;-82
2022/07/12 12:43:49;;;;;;;2.30;2.10;;;;;;;;;;6244340;22;20341;-81
2022/07/12 12:46:15;;;;;;;2.58;1.60;;;;;;;;;;6220840;22;20015;-81
2022/07/12 12:48:48;;;;;;;2.85;1.10;;;;;;;;;;6244614;22;20069;-81
2022/07/12 12:51:14;;;;;;;1.33;0.98;;;;;;;;;;6245854;22;20035;-80
2022/07/12 12:53:41;;;;;;;1.83;1.00;;;;;;;;;;6259501;22;20146;-81
2022/07/12 12:56:08;;;;;;;2.25;1.05;;;;;;;;;;6219945;22;20016;-82
2022/07/12 12:58:35;;;;;;;4.38;1.30;;;;;;;;;;6245263;22;20051;-82
2022/07/12 13:01:01;;;;;;;3.53;0.90;;;;;;;;;;6272357;22;20027;-82
2022/07/12 13:03:27;;;;;;;0.80;0.80;;;;;;;;;;6272503;22;20095;-80
2022/07/12 13:05:54;;;;;;;4.10;1.00;;;;;;;;;;6244994;22;20020;-79
2022/07/12 13:08:20;;;;;;;1.58;0.70;;;;;;;;;;6272616;22;20016;-82
2022/07/12 13:10:47;;;;;;;6.95;0.80;;;;;;;;;;6270024;22;20126;-80
2022/07/12 13:13:14;;;;;;;1.17;0.60;;;;;;;;;;6245381;22;20019;-81
2022/07/12 13:15:40;;;;;;;2.55;0.70;;;;;;;;;;6271012;22;20020;-80
2022/07/12 13:18:06;;;;;;;0.95;0.77;;;;;;;;;;6245062;22;20057;-78
2022/07/12 13:20:33;;;;;;;2.10;0.50;;;;;;;;;;6274070;22;20470;-81
2022/07/12 13:23:01;;;;;;;2.05;0.68;;;;;;;;;;6220171;22;20034;-80
2022/07/12 13:25:27;;;;;;;1.30;0.70;;;;;;;;;;6272956;22;20039;-81
2022/07/12 13:27:54;;;;;;;2.95;0.60;;;;;;;;;;6272485;22;20015;-81
2022/07/12 13:30:21;;;;;;;1.25;0.80;;;;;;;;;;6246676;22;20102;-79
2022/07/12 13:32:47;;;;;;;1.13;0.63;;;;;;;;;;6245757;22;20019;-81
2022/07/12 13:35:13;;;;;;;0.85;0.80;;;;;;;;;;6274565;22;20042;-80
2022/07/12 13:37:41;;;;;;;1.38;0.63;;;;;;;;;;6272384;22;20023;-81
2022/07/12 13:40:11;;;;;;;1.70;0.80;;;;;;;;;;6272647;22;20022;-81
2022/07/12 13:42:38;;;;;;;2.03;0.80;;;;;;;;;;6272615;22;20012;-80
2022/07/12 13:45:04;;;;;;;2.38;0.77;;;;;;;;;;6273121;22;20020;-78
2022/07/12 13:47:33;;;;;;;2.13;0.70;;;;;;;;;;6246895;22;20024;-78
2022/07/12 13:49:59;;;;;;;2.75;0.70;;;;;;;;;;6274299;22;20016;-80
2022/07/12 13:52:25;;;;;;;4.68;0.75;;;;;;;;;;6249521;22;20016;-81
2022/07/12 13:54:51;;;;;;;1.13;0.60;;;;;;;;;;6247547;22;20087;-80
2022/07/12 13:57:20;;;;;;;2.60;0.70;;;;;;;;;;6226633;22;20020;-81
2022/07/12 13:59:47;;;;;;;2.90;1.35;;;;;;;;;;6246054;22;20100;-81
2022/07/12 14:02:13;;;;;;;1.50;0.65;;;;;;;;;;6274007;22;20087;-80
2022/07/12 14:04:39;;;;;;;1.00;0.90;;;;;;;;;;6274762;22;20043;-81
2022/07/12 14:07:06;;;;;;;4.05;1.00;;;;;;;;;;6274633;22;20020;-81
2022/07/12 14:09:32;;;;;;;1.70;0.82;;;;;;;;;;6248431;22;20047;-81
2022/07/12 14:12:01;;;;;;;3.15;1.00;;;;;;;;;;6274816;22;20019;-80
2022/07/12 14:17:12;;;;;;;2.58;0.80;;;;;;;;;;6273149;22;20024;-81
2022/07/12 14:19:39;;;;;;;0.73;0.73;;;;;;;;;;6275597;22;20023;-80
2022/07/12 14:22:05;;;;;;;1.98;0.90;;;;;;;;;;6272046;22;20026;-81
2022/07/12 14:24:31;;;;;;;2.85;1.10;;;;;;;;;;6272224;22;20099;-81
2022/07/12 14:26:57;;;;;;;3.17;1.08;;;;;;;;;;6272333;22;20027;-79
2022/07/12 14:29:30;;;;;;;3.30;1.30;;;;;;;;;;6270792;22;20383;-79
2022/07/12 14:31:57;;;;;;;1.20;1.10;;;;;;;;;;6273259;22;20535;-82
2022/07/12 14:34:23;;;;;;;1.35;1.25;;;;;;;;;;6271526;22;20470;-81
2022/07/12 14:36:49;;;;;;;2.13;1.33;;;;;;;;;;6273245;22;20012;-82
2022/07/12 14:39:15;;;;;;;1.50;1.15;;;;;;;;;;6274055;22;20015;-82
2022/07/12 14:41:42;;;;;;;4.75;2.10;;;;;;;;;;6250414;22;20051;-82
2022/07/12 14:44:08;;;;;;;1.95;1.35;;;;;;;;;;6274107;22;20055;-82
2022/07/12 14:46:35;;;;;;;6.40;1.20;;;;;;;;;;6272227;22;20068;-82
2022/07/12 14:49:01;;;;;;;1.00;0.90;;;;;;;;;;6273544;22;20016;-79
2022/07/12 14:51:27;;;;;;;2.53;1.20;;;;;;;;;;6271505;22;20047;-80
2022/07/12 14:53:53;;;;;;;2.45;1.50;;;;;;;;;;6242519;22;20020;-80